Terminal Aerodrome Forecast
Issued by NWS

Home | Current Version | Previous Version | Text Only | Print | Product List | Glossary On
Versions: 1 2 3 4 5 6 7 8 9 10 11 12 13 14 15 16 17 18 19 20 21 22 23 24
000
FTUS43 KAPX 010537 AAA
TAFAPN
TAF AMD
KAPN 010537Z 0106/0206 33008KT 2SM -SHSN OVC025
     FM010800 04010KT P6SM BKN025
      TEMPO 0108/0112 SCT025 OVC140
     FM011500 05009G15KT P6SM -SHSN BKN028
     FM020000 03009KT P6SM BKN025=

USA.gov is the U.S. government's official web portal to all federal, state and local government web resources and services.